Time;durP1;ratioP1;P1;durP2;ratioP2;P2;SDS_P1;SDS_P2;PMS_P1;PMS_P2;Temp;Humidity;BMP_temperature;BMP_pressure;BME280_temperature;BME280_humidity;BME280_pressure;Samples;Min_cycle;Max_cycle;Signal;HPM_P1;HPM_P2
2022/03/05 00:00:30;;;;;;;4.13;3.27;;;14.50;42.20;;;;;;5059961;28;20492;-81
2022/03/05 00:02:58;;;;;;;5.80;4.00;;;14.50;42.30;;;;;;5059639;28;20493;-81
2022/03/05 00:05:26;;;;;;;4.73;3.73;;;14.40;42.30;;;;;;5054202;28;20446;-81
2022/03/05 00:07:54;;;;;;;5.93;3.60;;;14.40;42.30;;;;;;5059167;28;20451;-80
2022/03/05 00:10:23;;;;;;;6.40;4.00;;;14.40;42.30;;;;;;5059171;28;20489;-81
2022/03/05 00:12:51;;;;;;;3.93;3.57;;;14.40;42.50;;;;;;5058967;28;20516;-81
2022/03/05 00:15:20;;;;;;;5.53;3.83;;;14.40;42.40;;;;;;5059198;28;20427;-81
2022/03/05 00:17:48;;;;;;;4.23;3.83;;;14.40;42.40;;;;;;5058678;28;20485;-81
2022/03/05 00:20:16;;;;;;;6.00;4.03;;;14.40;42.50;;;;;;5056530;28;20450;-81
2022/03/05 00:22:44;;;;;;;3.83;3.50;;;14.40;42.40;;;;;;5058869;28;20508;-81
2022/03/05 00:25:12;;;;;;;3.93;3.50;;;14.30;42.40;;;;;;5058990;28;20438;-81
2022/03/05 00:27:41;;;;;;;5.13;3.83;;;14.30;42.40;;;;;;5059003;28;20471;-81
2022/03/05 00:30:10;;;;;;;6.37;3.87;;;14.30;42.50;;;;;;5058547;28;20473;-81
2022/03/05 00:32:38;;;;;;;6.53;3.97;;;14.30;42.40;;;;;;5058320;28;20458;-81
2022/03/05 00:35:07;;;;;;;3.80;3.50;;;14.20;42.60;;;;;;5058864;28;20493;-81
2022/03/05 00:37:35;;;;;;;3.47;3.17;;;14.20;42.60;;;;;;5053765;28;20438;-81
2022/03/05 00:40:03;;;;;;;3.70;3.20;;;14.20;42.50;;;;;;5058752;28;20430;-81
2022/03/05 00:42:31;;;;;;;4.87;3.90;;;14.20;42.50;;;;;;5057988;28;20466;-81
2022/03/05 00:45:00;;;;;;;5.93;4.03;;;14.20;42.50;;;;;;5059313;28;20461;-81
2022/03/05 00:47:30;;;;;;;5.13;3.40;;;14.10;42.50;;;;;;5054297;28;20482;-80
2022/03/05 00:49:58;;;;;;;5.33;3.77;;;14.10;42.60;;;;;;5059386;28;20467;-81
2022/03/05 00:52:26;;;;;;;5.90;3.63;;;14.10;42.50;;;;;;5054077;28;20464;-81
2022/03/05 00:54:54;;;;;;;3.53;3.23;;;14.00;42.60;;;;;;5052027;28;20434;-81
2022/03/05 00:57:22;;;;;;;4.20;3.80;;;14.00;42.70;;;;;;5058702;28;20477;-81
2022/03/05 00:59:50;;;;;;;4.40;3.47;;;14.00;42.70;;;;;;5058363;28;20431;-81
2022/03/05 01:02:19;;;;;;;5.20;3.40;;;14.00;42.80;;;;;;5058291;28;20463;-81
2022/03/05 01:04:47;;;;;;;4.50;3.70;;;14.00;42.90;;;;;;5058069;28;20442;-81
2022/03/05 01:07:15;;;;;;;5.77;4.00;;;14.00;42.90;;;;;;5058483;28;20467;-81
2022/03/05 01:09:43;;;;;;;6.90;3.90;;;14.00;42.90;;;;;;5053547;28;20513;-81
2022/03/05 01:12:11;;;;;;;5.70;3.40;;;14.00;42.80;;;;;;5058012;28;20541;-81
2022/03/05 01:14:38;;;;;;;13.10;4.23;;;14.00;42.60;;;;;;5058459;28;20451;-81
2022/03/05 01:17:07;;;;;;;4.10;3.70;;;14.00;42.80;;;;;;5057527;28;20462;-80
2022/03/05 01:19:36;;;;;;;6.53;3.67;;;13.90;42.90;;;;;;5057887;28;20435;-81
2022/03/05 01:22:07;;;;;;;7.53;3.37;;;13.90;42.80;;;;;;5057879;28;20430;-81
2022/03/05 01:24:35;;;;;;;4.33;3.23;;;13.90;43.00;;;;;;5057933;28;20426;-81
2022/03/05 01:27:07;;;;;;;5.00;3.30;;;13.90;43.10;;;;;;5052538;28;20485;-81
2022/03/05 01:29:35;;;;;;;5.10;3.17;;;13.90;43.10;;;;;;5057807;28;20504;-81
2022/03/05 01:32:03;;;;;;;4.00;3.60;;;13.80;43.00;;;;;;5058805;28;20516;-81
2022/03/05 01:34:31;;;;;;;4.23;3.83;;;13.80;42.90;;;;;;5061150;28;20501;-80
2022/03/05 01:37:00;;;;;;;6.60;3.77;;;13.80;43.00;;;;;;5061793;28;20474;-81
2022/03/05 01:39:28;;;;;;;5.70;3.70;;;13.80;43.10;;;;;;5061654;28;20500;-81
2022/03/05 01:41:56;;;;;;;4.37;3.60;;;13.80;43.10;;;;;;5061652;28;20430;-81
2022/03/05 01:44:27;;;;;;;4.77;3.90;;;13.70;42.90;;;;;;5059442;28;20512;-80
2022/03/05 01:46:55;;;;;;;4.17;3.80;;;13.70;43.10;;;;;;5061499;28;20489;-81
2022/03/05 01:49:23;;;;;;;4.03;3.47;;;13.70;43.10;;;;;;5061010;28;20477;-80
2022/03/05 01:51:51;;;;;;;5.03;3.43;;;13.70;43.20;;;;;;5061494;28;20504;-81
2022/03/05 01:54:20;;;;;;;7.40;3.40;;;13.70;43.00;;;;;;5060619;28;20554;-81
2022/03/05 01:56:48;;;;;;;3.93;3.53;;;13.70;43.10;;;;;;5060661;28;20470;-81
2022/03/05 01:59:16;;;;;;;6.67;3.87;;;13.60;43.20;;;;;;5060639;28;20442;-81
2022/03/05 02:01:44;;;;;;;5.57;3.60;;;13.60;43.20;;;;;;5052835;28;20482;-80
2022/03/05 02:04:12;;;;;;;5.77;3.87;;;13.60;43.20;;;;;;5042205;28;20467;-82
2022/03/05 02:06:40;;;;;;;4.70;3.90;;;13.60;43.30;;;;;;5042940;28;20447;-81
2022/03/05 02:09:08;;;;;;;3.67;3.37;;;13.60;43.20;;;;;;5042353;28;20439;-81
2022/03/05 02:11:37;;;;;;;4.03;3.47;;;13.60;43.20;;;;;;5041699;28;20443;-81
2022/03/05 02:14:05;;;;;;;4.23;3.40;;;13.60;43.20;;;;;;5041667;28;20447;-81
2022/03/05 02:16:33;;;;;;;4.00;3.60;;;13.60;43.20;;;;;;5040703;28;20483;-81
2022/03/05 02:19:02;;;;;;;4.90;3.70;;;13.50;43.20;;;;;;5041378;28;20467;-81
2022/03/05 02:21:31;;;;;;;4.53;3.77;;;13.50;43.20;;;;;;5058616;28;20457;-80
2022/03/05 02:23:59;;;;;;;5.10;3.97;;;13.50;43.20;;;;;;5060308;28;20513;-82
2022/03/05 02:26:28;;;;;;;5.50;3.53;;;13.40;43.30;;;;;;5060583;28;20961;-81
2022/03/05 02:28:55;;;;;;;4.50;3.90;;;13.40;43.30;;;;;;5060831;28;20516;-82
2022/03/05 02:31:23;;;;;;;4.10;3.70;;;13.40;43.20;;;;;;5060592;28;20493;-80
2022/03/05 02:33:53;;;;;;;4.10;3.53;;;13.40;43.20;;;;;;5060886;28;20466;-80
2022/03/05 02:40:11;;;;;;;5.27;3.60;;;13.40;43.40;;;;;;5058376;28;20417;-80
2022/03/05 02:42:39;;;;;;;4.93;3.70;;;13.30;43.40;;;;;;5061105;28;20497;-80
2022/03/05 02:45:07;;;;;;;9.07;4.07;;;13.30;43.40;;;;;;5060820;28;20453;-80
2022/03/05 02:47:36;;;;;;;5.47;3.63;;;13.30;43.60;;;;;;5061068;28;20469;-80
2022/03/05 02:50:05;;;;;;;4.10;3.80;;;13.30;43.50;;;;;;5060334;28;20564;-80
2022/03/05 02:52:33;;;;;;;4.17;3.60;;;13.30;43.60;;;;;;5060402;28;20497;-79
2022/03/05 02:55:01;;;;;;;3.83;3.43;;;13.20;43.40;;;;;;5058687;28;20483;-80
2022/03/05 02:57:30;;;;;;;4.00;3.40;;;13.20;43.60;;;;;;5054599;28;20446;-79
2022/03/05 02:59:58;;;;;;;5.00;3.53;;;13.20;43.50;;;;;;5060808;28;20977;-80
2022/03/05 03:02:26;;;;;;;3.93;3.57;;;13.20;43.60;;;;;;5060873;28;20497;-80
2022/03/05 03:04:54;;;;;;;6.17;3.93;;;13.20;43.60;;;;;;5061182;28;20446;-80
2022/03/05 03:07:22;;;;;;;4.10;3.67;;;13.10;43.60;;;;;;5061177;28;20442;-80
2022/03/05 03:09:50;;;;;;;3.97;3.57;;;13.20;43.60;;;;;;5060530;28;20931;-80
2022/03/05 03:12:18;;;;;;;5.70;4.10;;;13.10;43.60;;;;;;5060343;28;20430;-80
2022/03/05 03:14:47;;;;;;;5.20;3.90;;;13.10;43.70;;;;;;5054827;28;20929;-81
2022/03/05 03:17:17;;;;;;;4.53;3.77;;;13.10;43.60;;;;;;5059850;28;20469;-80
2022/03/05 03:19:44;;;;;;;3.87;3.50;;;13.10;43.60;;;;;;5059842;28;20462;-78
2022/03/05 03:22:12;;;;;;;5.03;3.97;;;13.10;43.60;;;;;;5059778;28;20483;-79
2022/03/05 03:24:40;;;;;;;4.10;3.70;;;13.10;43.70;;;;;;5059535;28;20485;-79
2022/03/05 03:27:09;;;;;;;4.40;3.70;;;13.10;43.60;;;;;;5059967;28;20470;-79
2022/03/05 03:29:37;;;;;;;4.83;3.90;;;13.10;43.60;;;;;;5059871;28;20497;-79
2022/03/05 03:32:07;;;;;;;4.23;3.57;;;13.10;43.60;;;;;;5055548;28;20450;-79
2022/03/05 03:34:35;;;;;;;3.77;3.47;;;13.00;43.70;;;;;;5060184;28;20489;-79
2022/03/05 03:37:04;;;;;;;3.80;3.43;;;13.00;43.90;;;;;;5059850;28;20434;-80
2022/03/05 03:39:32;;;;;;;3.33;3.03;;;13.00;43.70;;;;;;5059864;28;20469;-79
2022/03/05 03:42:00;;;;;;;4.33;3.30;;;12.90;43.70;;;;;;5059091;28;20470;-80
2022/03/05 03:44:28;;;;;;;3.60;3.30;;;13.00;43.90;;;;;;5060092;28;20458;-79
2022/03/05 03:46:57;;;;;;;5.33;4.00;;;12.90;43.80;;;;;;5059728;28;20458;-80
2022/03/05 03:49:26;;;;;;;6.10;3.90;;;12.90;43.80;;;;;;5051783;28;20470;-79
2022/03/05 03:51:54;;;;;;;5.00;3.40;;;12.90;43.90;;;;;;5059422;28;20473;-79
2022/03/05 03:54:22;;;;;;;3.80;3.50;;;12.80;43.90;;;;;;5059182;28;20483;-80
2022/03/05 03:56:50;;;;;;;4.07;3.67;;;12.80;43.90;;;;;;5059448;28;20493;-80
2022/03/05 03:59:18;;;;;;;4.07;3.30;;;12.80;43.90;;;;;;5059383;28;20434;-80
2022/03/05 04:01:46;;;;;;;6.10;3.80;;;12.80;44.00;;;;;;5059927;28;20442;-80
2022/03/05 04:04:14;;;;;;;4.37;3.90;;;12.80;43.90;;;;;;5058203;28;20481;-80
2022/03/05 04:09:29;;;;;;;3.60;3.30;;;12.70;43.90;;;;;;5059238;28;20861;-80
2022/03/05 04:11:57;;;;;;;3.63;3.10;;;12.70;43.90;;;;;;5059913;28;20481;-79
2022/03/05 04:14:25;;;;;;;6.07;3.87;;;12.80;44.10;;;;;;5059462;28;20469;-79
2022/03/05 04:16:53;;;;;;;5.33;4.10;;;12.80;43.90;;;;;;5059360;28;20528;-79
2022/03/05 04:19:21;;;;;;;5.20;3.90;;;12.80;44.10;;;;;;5059249;28;20431;-79
2022/03/05 04:21:50;;;;;;;4.83;3.60;;;12.70;43.90;;;;;;5047177;28;20509;-80
2022/03/05 04:24:20;;;;;;;4.80;3.73;;;12.70;44.00;;;;;;5039330;28;20494;-78
2022/03/05 04:26:48;;;;;;;3.53;3.23;;;12.70;44.70;;;;;;5039301;28;20467;-80
2022/03/05 04:29:16;;;;;;;4.10;3.50;;;12.70;44.10;;;;;;5039013;28;20475;-79
2022/03/05 04:31:43;;;;;;;5.90;3.40;;;12.70;44.00;;;;;;5039163;28;20498;-79
2022/03/05 04:34:11;;;;;;;4.33;3.60;;;12.70;44.00;;;;;;5038817;28;20467;-80
2022/03/05 04:36:42;;;;;;;3.53;3.23;;;12.70;44.00;;;;;;5039702;28;20493;-79
2022/03/05 04:39:11;;;;;;;5.20;3.10;;;12.70;44.10;;;;;;5044625;28;20478;-80
2022/03/05 04:41:39;;;;;;;4.50;3.37;;;12.60;44.00;;;;;;5038950;28;20432;-80
2022/03/05 04:44:08;;;;;;;5.07;3.53;;;12.60;44.20;;;;;;5039089;28;20460;-80
2022/03/05 04:46:36;;;;;;;3.90;3.50;;;12.60;44.20;;;;;;5039767;28;20432;-80
2022/03/05 04:49:04;;;;;;;4.40;4.00;;;12.60;44.10;;;;;;5038263;28;20463;-80
2022/03/05 04:51:32;;;;;;;3.40;3.10;;;12.60;44.30;;;;;;5038275;28;20443;-80
2022/03/05 04:54:00;;;;;;;3.40;3.10;;;12.50;44.00;;;;;;5038707;28;20503;-80
2022/03/05 04:56:29;;;;;;;3.73;3.30;;;12.60;44.30;;;;;;5038230;28;20455;-80
2022/03/05 04:58:57;;;;;;;3.83;3.53;;;12.60;44.20;;;;;;5038338;28;20490;-80
2022/03/05 05:01:25;;;;;;;4.47;3.53;;;12.50;44.20;;;;;;5038090;28;20466;-80
2022/03/05 05:03:53;;;;;;;4.50;3.30;;;12.60;44.20;;;;;;5038574;28;20467;-80
2022/03/05 05:06:21;;;;;;;5.90;3.43;;;12.60;44.30;;;;;;5037889;28;20435;-80
2022/03/05 05:08:49;;;;;;;6.20;3.87;;;12.50;44.00;;;;;;5036740;28;20499;-80
2022/03/05 05:11:17;;;;;;;4.03;3.20;;;12.50;44.10;;;;;;5038462;28;20515;-81
2022/03/05 05:13:46;;;;;;;4.23;3.50;;;12.60;44.30;;;;;;5057986;28;20861;-78
2022/03/05 05:16:14;;;;;;;11.13;3.30;;;12.50;44.10;;;;;;5057702;28;20426;-80
2022/03/05 05:19:24;;;;;;;4.77;3.60;;;12.50;44.20;;;;;;5057587;28;20438;-80
2022/03/05 05:21:41;;;;;;;3.20;2.90;;;12.50;44.40;;;;;;5058608;28;20438;-80
2022/03/05 05:24:09;;;;;;;4.70;3.60;;;12.50;44.40;;;;;;5057834;28;20533;-80
2022/03/05 05:26:36;;;;;;;4.20;3.73;;;12.40;44.30;;;;;;5058202;28;20500;-80
2022/03/05 05:29:06;;;;;;;5.87;3.50;;;12.40;44.30;;;;;;5056241;28;20471;-80
2022/03/05 05:31:55;;;;;;;5.23;3.63;;;12.40;44.30;;;;;;5058322;28;20435;-80
2022/03/05 05:34:23;;;;;;;4.60;3.90;;;12.40;44.30;;;;;;5058377;28;20474;-80
2022/03/05 05:36:51;;;;;;;3.47;3.17;;;12.40;44.40;;;;;;5057797;28;20945;-80
2022/03/05 05:39:19;;;;;;;3.60;3.30;;;12.30;44.30;;;;;;5057966;28;20427;-80
2022/03/05 05:41:47;;;;;;;5.47;3.67;;;12.30;44.40;;;;;;5058164;28;20434;-80
2022/03/05 05:44:16;;;;;;;3.93;3.43;;;12.30;44.40;;;;;;5057689;28;20513;-80
2022/03/05 05:46:44;;;;;;;3.50;3.20;;;12.30;44.40;;;;;;5057313;28;20614;-81
2022/03/05 05:49:14;;;;;;;3.50;3.20;;;12.30;44.60;;;;;;5058190;28;20466;-81
2022/03/05 05:51:41;;;;;;;4.93;3.60;;;12.30;44.50;;;;;;5058687;28;20442;-81
2022/03/05 05:54:09;;;;;;;3.53;3.23;;;12.30;44.60;;;;;;5058166;28;20489;-81
2022/03/05 05:56:37;;;;;;;4.20;3.30;;;12.30;44.50;;;;;;5057843;28;20466;-81
2022/03/05 05:59:05;;;;;;;5.90;3.57;;;12.20;44.50;;;;;;5058279;28;20466;-80
2022/03/05 06:01:34;;;;;;;4.93;3.60;;;12.20;44.70;;;;;;5058335;28;20533;-81
2022/03/05 06:04:02;;;;;;;6.00;3.37;;;12.20;44.60;;;;;;5050070;28;20471;-81
2022/03/05 06:06:30;;;;;;;3.70;3.30;;;12.20;44.50;;;;;;5057733;28;20438;-81
2022/03/05 06:08:58;;;;;;;3.40;3.10;;;12.30;44.60;;;;;;5056977;28;20462;-81
2022/03/05 06:11:26;;;;;;;5.67;3.80;;;12.20;44.60;;;;;;5058046;28;20477;-81
2022/03/05 06:13:54;;;;;;;3.57;3.27;;;12.20;44.60;;;;;;5057287;28;20451;-81
2022/03/05 06:16:22;;;;;;;3.00;2.73;;;12.30;44.70;;;;;;5057095;28;20434;-81
2022/03/05 06:18:54;;;;;;;3.70;3.00;;;12.20;44.60;;;;;;5058229;28;20427;-81
2022/03/05 06:21:23;;;;;;;4.63;3.33;;;12.20;44.60;;;;;;5060531;28;20465;-81
2022/03/05 06:23:51;;;;;;;3.90;3.50;;;12.20;44.60;;;;;;5060711;28;20462;-81
2022/03/05 06:26:19;;;;;;;4.17;3.30;;;12.20;44.60;;;;;;5061124;28;20426;-81
2022/03/05 06:28:47;;;;;;;3.80;3.50;;;12.20;44.60;;;;;;5061149;28;20445;-81
2022/03/05 06:31:15;;;;;;;3.60;3.20;;;12.20;44.60;;;;;;5060813;28;20477;-81
2022/03/05 06:33:43;;;;;;;6.80;4.00;;;12.20;44.70;;;;;;5060489;28;20458;-81
2022/03/05 06:36:12;;;;;;;3.70;3.23;;;12.20;44.60;;;;;;5062116;28;20434;-81
2022/03/05 06:38:45;;;;;;;3.67;3.30;;;12.20;44.60;;;;;;5056478;28;20461;-80
2022/03/05 06:41:13;;;;;;;5.10;3.43;;;12.30;44.70;;;;;;5060637;28;20438;-80
2022/03/05 06:43:41;;;;;;;4.70;3.60;;;12.40;44.70;;;;;;5060882;28;20543;-81
2022/03/05 06:46:09;;;;;;;3.17;2.87;;;12.40;44.70;;;;;;5060771;28;20458;-81
2022/03/05 06:48:37;;;;;;;3.50;3.20;;;12.40;44.70;;;;;;5061012;28;20613;-81
2022/03/05 06:51:04;;;;;;;2.93;2.73;;;12.50;44.60;;;;;;5060416;28;20517;-81
2022/03/05 06:53:34;;;;;;;2.90;2.70;;;12.50;44.50;;;;;;5060385;28;20490;-80
2022/03/05 06:56:11;;;;;;;3.07;2.80;;;12.50;44.50;;;;;;5055722;28;20821;-80
2022/03/05 06:58:39;;;;;;;7.50;4.00;;;12.60;44.60;;;;;;5040034;28;20420;-80
2022/03/05 07:01:07;;;;;;;2.87;2.60;;;12.60;44.60;;;;;;5040790;28;20424;-80
2022/03/05 07:03:35;;;;;;;5.60;3.73;;;12.60;44.50;;;;;;5039211;28;20474;-80
2022/03/05 07:06:03;;;;;;;3.83;3.40;;;12.70;44.60;;;;;;5040109;28;20447;-81
2022/03/05 07:08:31;;;;;;;4.57;3.20;;;12.70;44.50;;;;;;5039599;28;20432;-80
2022/03/05 07:11:00;;;;;;;3.10;2.90;;;12.80;44.60;;;;;;5040085;28;20495;-80
2022/03/05 07:13:28;;;;;;;4.57;3.57;;;12.80;44.50;;;;;;5047533;28;20528;-80
2022/03/05 07:15:56;;;;;;;4.00;3.40;;;12.80;44.40;;;;;;5059933;28;20438;-80
2022/03/05 07:18:24;;;;;;;3.30;3.00;;;12.80;44.60;;;;;;5059759;28;20442;-80
2022/03/05 07:20:52;;;;;;;4.50;3.63;;;12.90;44.60;;;;;;5060262;28;20496;-81
2022/03/05 07:23:20;;;;;;;5.13;3.10;;;12.90;44.60;;;;;;5059822;28;20501;-81
2022/03/05 07:25:48;;;;;;;4.17;2.93;;;12.90;44.50;;;;;;5059917;28;20500;-80
2022/03/05 07:28:17;;;;;;;4.93;3.13;;;12.90;44.50;;;;;;5055878;28;20493;-81
2022/03/05 07:30:45;;;;;;;3.80;3.43;;;12.90;44.60;;;;;;5040118;28;20557;-81
2022/03/05 07:33:14;;;;;;;3.30;3.00;;;13.00;44.80;;;;;;5039695;28;20499;-80
2022/03/05 07:35:42;;;;;;;3.43;3.00;;;13.00;44.60;;;;;;5038981;28;20447;-81
2022/03/05 07:38:10;;;;;;;4.57;2.93;;;13.10;44.60;;;;;;5038437;28;20439;-81
2022/03/05 07:40:37;;;;;;;3.53;3.10;;;13.20;44.70;;;;;;5038232;28;20517;-80
2022/03/05 07:43:05;;;;;;;3.43;3.13;;;13.20;44.50;;;;;;5038857;28;20505;-81
2022/03/05 07:45:40;;;;;;;4.20;2.80;;;13.20;44.50;;;;;;5049575;28;20451;-81
2022/03/05 07:48:08;;;;;;;8.23;3.23;;;13.30;44.50;;;;;;5059059;28;20442;-80
2022/03/05 07:50:37;;;;;;;2.60;2.47;;;13.20;44.40;;;;;;5058792;28;20470;-80
2022/03/05 07:53:05;;;;;;;2.73;2.53;;;13.20;44.50;;;;;;5059410;28;20447;-81
2022/03/05 07:55:32;;;;;;;4.27;3.30;;;13.30;44.60;;;;;;5059243;28;20490;-81
2022/03/05 07:58:00;;;;;;;2.93;2.73;;;13.30;44.50;;;;;;5059160;28;20473;-81
2022/03/05 08:00:28;;;;;;;3.40;3.13;;;13.30;44.50;;;;;;5059914;28;20423;-81
2022/03/05 08:02:57;;;;;;;3.10;2.90;;;13.40;44.50;;;;;;5059617;28;20492;-82
2022/03/05 08:05:26;;;;;;;9.50;3.53;;;13.40;44.50;;;;;;5059117;28;20435;-82
2022/03/05 08:07:54;;;;;;;3.53;3.23;;;13.40;44.60;;;;;;5059836;28;20423;-82
2022/03/05 08:10:22;;;;;;;3.37;3.00;;;13.40;44.60;;;;;;5059649;28;20470;-82
2022/03/05 08:12:50;;;;;;;4.70;2.97;;;13.60;44.40;;;;;;5058231;28;20458;-81
2022/03/05 08:15:18;;;;;;;4.30;3.20;;;13.70;44.20;;;;;;5059217;28;20469;-81
2022/03/05 08:17:50;;;;;;;3.70;3.40;;;14.00;44.00;;;;;;5058483;28;20458;-79
2022/03/05 08:20:19;;;;;;;2.97;2.73;;;14.10;43.80;;;;;;5058836;28;20438;-81
2022/03/05 08:22:47;;;;;;;3.20;2.97;;;14.20;43.80;;;;;;5059155;28;20451;-81
2022/03/05 08:25:15;;;;;;;4.00;3.37;;;14.20;43.90;;;;;;5059089;28;20435;-81
2022/03/05 08:27:43;;;;;;;3.13;2.93;;;13.90;44.70;;;;;;5053955;28;20497;-81
2022/03/05 08:30:11;;;;;;;3.20;3.00;;;14.10;45.10;;;;;;5063228;28;20446;-81
2022/03/05 08:32:39;;;;;;;3.70;3.40;;;14.10;45.50;;;;;;5067871;28;20458;-80
2022/03/05 08:35:08;;;;;;;4.60;3.40;;;14.20;45.70;;;;;;5065448;28;20478;-81
2022/03/05 08:37:37;;;;;;;3.37;3.10;;;14.50;45.80;;;;;;5065853;28;20447;-80
2022/03/05 08:40:07;;;;;;;3.90;3.60;;;14.80;45.80;;;;;;5064871;28;20422;-81
2022/03/05 08:42:34;;;;;;;3.43;3.13;;;15.20;45.20;;;;;;5064609;28;20537;-80
2022/03/05 08:45:03;;;;;;;4.63;3.57;;;15.40;45.10;;;;;;5066117;28;20427;-81
2022/03/05 08:47:32;;;;;;;3.60;3.30;;;15.50;45.40;;;;;;5062539;28;20435;-81
2022/03/05 08:50:00;;;;;;;3.70;3.40;;;15.70;45.40;;;;;;5055697;28;20484;-81
2022/03/05 08:52:29;;;;;;;3.47;3.17;;;16.00;45.30;;;;;;5041043;28;20544;-82
2022/03/05 08:54:58;;;;;;;3.83;3.40;;;16.10;45.20;;;;;;5035741;28;20443;-81
2022/03/05 08:57:26;;;;;;;3.60;3.30;;;16.30;45.30;;;;;;5035727;28;20481;-81
2022/03/05 08:59:54;;;;;;;3.50;3.20;;;16.50;45.40;;;;;;5035619;28;20497;-81
2022/03/05 09:02:22;;;;;;;3.70;3.40;;;16.70;45.20;;;;;;5035010;28;20497;-82
2022/03/05 09:04:50;;;;;;;5.27;3.50;;;16.70;45.40;;;;;;5035342;28;20471;-82
2022/03/05 09:07:17;;;;;;;3.73;3.33;;;16.80;45.60;;;;;;5035685;28;20447;-82
2022/03/05 09:09:45;;;;;;;3.50;3.20;;;16.80;45.70;;;;;;5055076;28;20505;-81
2022/03/05 09:12:15;;;;;;;3.70;3.40;;;17.10;45.60;;;;;;5066951;28;20466;-81
2022/03/05 09:14:42;;;;;;;3.50;3.17;;;17.20;45.70;;;;;;5066555;28;20461;-81
2022/03/05 09:17:10;;;;;;;3.83;3.00;;;17.40;45.80;;;;;;5067422;28;20462;-81
2022/03/05 09:19:38;;;;;;;2.90;2.70;;;17.60;45.70;;;;;;5067052;28;20442;-80
2022/03/05 09:22:11;;;;;;;3.50;3.20;;;17.80;45.40;;;;;;5067018;28;20439;-81
2022/03/05 09:24:39;;;;;;;4.03;3.13;;;18.00;45.50;;;;;;5064734;28;20480;-80
2022/03/05 09:27:07;;;;;;;3.50;3.20;;;18.10;45.50;;;;;;5067104;28;20434;-81
2022/03/05 09:29:36;;;;;;;4.30;3.00;;;18.30;45.20;;;;;;5064785;28;20448;-81
2022/03/05 09:32:05;;;;;;;3.87;3.23;;;18.50;45.20;;;;;;5063607;28;20495;-81
2022/03/05 09:34:33;;;;;;;3.33;3.03;;;18.70;45.20;;;;;;5063627;28;20991;-81
2022/03/05 09:37:01;;;;;;;3.43;3.13;;;18.90;44.90;;;;;;5063541;28;20450;-81
2022/03/05 09:39:29;;;;;;;3.20;2.90;;;19.20;44.70;;;;;;5061660;28;20438;-81
2022/03/05 09:41:57;;;;;;;3.87;3.17;;;19.40;45.10;;;;;;5062459;28;20442;-81
2022/03/05 09:44:26;;;;;;;3.30;3.00;;;19.60;44.40;;;;;;5062993;28;20495;-81
2022/03/05 09:46:55;;;;;;;3.40;3.13;;;19.80;44.30;;;;;;5063690;28;20411;-81
2022/03/05 09:49:23;;;;;;;2.83;2.63;;;20.00;44.10;;;;;;5062645;28;20442;-81
2022/03/05 09:51:51;;;;;;;2.80;2.70;;;20.20;43.70;;;;;;5064765;28;20511;-81
2022/03/05 09:54:19;;;;;;;3.33;3.03;;;20.40;43.50;;;;;;5068159;28;20469;-81
2022/03/05 09:56:47;;;;;;;4.00;3.13;;;20.60;43.40;;;;;;5066289;28;20516;-81
2022/03/05 09:59:15;;;;;;;4.10;3.20;;;20.80;43.20;;;;;;5065942;28;20446;-81
2022/03/05 10:01:43;;;;;;;4.97;3.40;;;20.90;42.80;;;;;;5068057;28;20434;-81
2022/03/05 10:04:20;;;;;;;3.77;3.47;;;21.00;42.60;;;;;;5067984;28;20458;-81
2022/03/05 10:07:16;;;;;;;3.33;3.13;;;21.30;42.60;;;;;;5064251;28;20487;-81
2022/03/05 10:09:45;;;;;;;3.13;2.93;;;21.50;42.40;;;;;;5054780;28;20431;-81
2022/03/05 10:12:27;;;;;;;3.23;3.03;;;21.70;42.10;;;;;;5055476;28;20535;-81
2022/03/05 10:15:09;;;;;;;2.50;2.40;;;21.90;41.90;;;;;;5047084;28;20402;-80
2022/03/05 10:17:51;;;;;;;3.00;2.80;;;22.10;42.20;;;;;;5065368;28;20450;-80
2022/03/05 10:20:20;;;;;;;2.70;2.53;;;22.30;41.20;;;;;;5068101;28;20437;-81
2022/03/05 10:22:58;;;;;;;4.90;2.90;;;22.50;40.90;;;;;;5065048;28;20462;-81
2022/03/05 10:25:31;;;;;;;3.23;3.00;;;22.60;40.60;;;;;;5065769;28;20419;-81
2022/03/05 10:28:06;;;;;;;3.47;3.17;;;22.80;40.30;;;;;;5068120;28;20431;-79
2022/03/05 10:30:35;;;;;;;4.37;2.70;;;22.90;40.10;;;;;;5068491;28;20456;-81
2022/03/05 10:33:03;;;;;;;4.27;2.93;;;23.10;40.00;;;;;;5067382;28;20482;-80
2022/03/05 10:35:32;;;;;;;2.90;2.60;;;23.30;39.80;;;;;;5068857;28;20433;-80
2022/03/05 10:38:00;;;;;;;2.90;2.70;;;23.50;39.50;;;;;;5068353;28;20447;-79
2022/03/05 10:40:30;;;;;;;2.60;2.50;;;23.70;39.40;;;;;;5067422;28;20442;-80
2022/03/05 10:43:02;;;;;;;3.03;2.83;;;23.80;39.10;;;;;;5067772;28;20481;-79
2022/03/05 10:45:30;;;;;;;2.40;2.30;;;23.90;38.90;;;;;;5068702;28;20419;-80
2022/03/05 10:47:59;;;;;;;2.80;2.60;;;24.10;38.60;;;;;;5068755;28;20430;-80
2022/03/05 10:50:28;;;;;;;2.53;2.43;;;24.30;38.40;;;;;;5067793;28;20962;-80
2022/03/05 10:53:00;;;;;;;2.30;2.20;;;24.50;38.20;;;;;;5063287;28;20481;-80
2022/03/05 10:55:28;;;;;;;2.30;2.20;;;24.60;38.20;;;;;;5069894;28;20390;-81
2022/03/05 10:58:01;;;;;;;2.40;2.30;;;24.80;38.00;;;;;;5069463;28;20474;-80
2022/03/05 11:00:30;;;;;;;2.37;2.27;;;25.00;37.70;;;;;;5067878;28;20940;-81
2022/03/05 11:03:00;;;;;;;2.63;2.43;;;25.10;37.30;;;;;;5056082;28;20436;-84
2022/03/05 11:05:28;;;;;;;2.30;2.13;;;25.30;36.10;;;;;;5054190;28;20927;-82
2022/03/05 11:07:58;;;;;;;2.97;2.57;;;25.30;35.40;;;;;;5060837;28;20417;-82
2022/03/05 11:10:29;;;;;;;9.23;3.13;;;25.30;35.20;;;;;;5060354;28;20423;-82
2022/03/05 11:12:59;;;;;;;2.87;2.60;;;25.40;35.20;;;;;;5060700;28;20504;-82
2022/03/05 11:15:27;;;;;;;3.10;2.77;;;25.50;35.20;;;;;;5060870;28;20475;-83
2022/03/05 11:17:55;;;;;;;8.17;2.87;;;25.60;35.40;;;;;;5060581;28;20467;-83
2022/03/05 11:20:23;;;;;;;6.80;2.67;;;25.70;35.40;;;;;;5060830;28;20433;-82
2022/03/05 11:22:51;;;;;;;7.37;2.90;;;25.90;35.00;;;;;;5060305;28;20517;-82
2022/03/05 11:25:21;;;;;;;3.87;2.47;;;26.00;34.80;;;;;;5060310;28;20458;-82
2022/03/05 11:27:53;;;;;;;4.97;3.10;;;26.70;34.30;;;;;;5060854;28;20464;-82
2022/03/05 11:30:21;;;;;;;9.80;2.40;;;27.60;32.80;;;;;;5060788;28;20481;-83
2022/03/05 11:32:49;;;;;;;4.47;2.87;;;28.70;31.80;;;;;;5060107;28;20506;-84
2022/03/05 11:35:22;;;;;;;7.10;2.43;;;29.50;30.30;;;;;;5060625;28;20440;-83
2022/03/05 11:37:50;;;;;;;3.00;2.70;;;30.40;29.40;;;;;;5060711;28;20422;-83
2022/03/05 11:40:34;;;;;;;2.53;2.33;;;31.20;28.40;;;;;;5060311;28;20419;-83
2022/03/05 11:43:19;;;;;;;2.63;2.40;;;31.80;27.60;;;;;;5055601;28;20509;-83
2022/03/05 11:45:49;;;;;;;2.43;2.33;;;32.00;27.00;;;;;;5060302;28;20446;-83
2022/03/05 11:48:30;;;;;;;2.67;2.47;;;32.30;26.70;;;;;;5060464;28;20442;-83
2022/03/05 11:50:59;;;;;;;2.50;2.30;;;32.70;26.40;;;;;;5060422;28;20430;-84
2022/03/05 11:53:28;;;;;;;5.17;2.50;;;33.00;25.90;;;;;;5058516;28;20509;-86
2022/03/05 11:55:57;;;;;;;2.63;2.43;;;33.20;25.60;;;;;;5058966;28;20446;-83
2022/03/05 11:58:34;;;;;;;3.93;2.30;;;33.70;25.60;;;;;;5057203;28;20470;-84
2022/03/05 12:01:33;;;;;;;5.40;2.37;;;33.90;25.00;;;;;;5046358;28;20441;-82
2022/03/05 12:04:16;;;;;;;5.70;2.50;;;34.20;24.60;;;;;;5042227;28;20462;-84
2022/03/05 12:06:47;;;;;;;9.73;2.00;;;34.20;24.30;;;;;;5063109;28;20470;-84
2022/03/05 12:09:43;;;;;;;2.00;1.90;;;34.50;24.00;;;;;;5057128;28;20427;-84
2022/03/05 12:12:14;;;;;;;4.80;2.37;;;34.70;23.70;;;;;;5059733;28;20457;-85
2022/03/05 12:15:19;;;;;;;4.13;2.13;;;34.90;23.60;;;;;;5058975;28;20442;-86
2022/03/05 12:17:48;;;;;;;3.00;2.50;;;35.00;23.20;;;;;;5058118;28;20470;-84
2022/03/05 12:20:18;;;;;;;2.77;2.63;;;35.10;22.70;;;;;;5060099;28;20481;-85
2022/03/05 12:22:49;;;;;;;2.37;2.20;;;35.00;22.60;;;;;;5061287;28;20465;-84
2022/03/05 12:25:23;;;;;;;5.03;2.43;;;35.00;22.40;;;;;;5060798;28;20493;-84
2022/03/05 12:27:52;;;;;;;2.90;2.80;;;35.20;22.30;;;;;;5059500;28;20427;-84
2022/03/05 12:30:22;;;;;;;2.50;2.30;;;35.20;22.10;;;;;;5059816;28;20514;-82
2022/03/05 12:32:52;;;;;;;2.53;2.37;;;35.20;22.00;;;;;;5056515;28;20483;-84
2022/03/05 12:35:21;;;;;;;2.33;2.23;;;35.30;21.70;;;;;;5058272;28;20443;-84
2022/03/05 12:37:49;;;;;;;5.27;2.40;;;35.30;21.50;;;;;;5057934;28;20948;-83
2022/03/05 12:40:17;;;;;;;2.10;2.00;;;35.30;21.50;;;;;;5057773;28;20439;-83
2022/03/05 12:42:46;;;;;;;2.40;2.30;;;35.30;21.40;;;;;;5056969;28;20455;-83
2022/03/05 12:45:17;;;;;;;3.90;1.80;;;35.50;21.30;;;;;;5057060;28;20473;-82
2022/03/05 12:47:45;;;;;;;2.40;2.23;;;35.50;21.20;;;;;;5057693;28;20438;-82
2022/03/05 12:50:24;;;;;;;2.73;2.63;;;35.50;21.20;;;;;;5057392;28;20474;-84
2022/03/05 12:53:00;;;;;;;2.00;2.00;;;35.50;20.90;;;;;;5053700;28;20477;-84
2022/03/05 12:55:29;;;;;;;2.63;2.53;;;35.40;20.80;;;;;;5058273;28;20462;-84
2022/03/05 12:57:59;;;;;;;3.70;2.60;;;35.20;20.70;;;;;;5056715;28;20431;-84
2022/03/05 13:00:29;;;;;;;2.57;2.37;;;35.20;20.80;;;;;;5060149;28;20453;-84
2022/03/05 13:02:57;;;;;;;7.80;2.80;;;35.00;20.80;;;;;;5059978;28;20442;-85
2022/03/05 13:05:25;;;;;;;3.80;2.77;;;35.10;21.10;;;;;;5061047;28;20454;-85